createdAt,value
2018-05-19T00:01:35.147Z,10.50
2018-05-19T00:04:02.111Z,10.50
2018-05-19T00:06:29.048Z,10.50
2018-05-19T00:08:56.007Z,10.50
2018-05-19T00:11:22.239Z,10.50
2018-05-19T00:13:48.455Z,10.50
2018-05-19T00:16:15.421Z,10.50
2018-05-19T00:18:41.874Z,10.50
2018-05-19T00:21:08.092Z,10.50
2018-05-19T00:23:34.283Z,10.50
2018-05-19T00:26:01.267Z,10.50
2018-05-19T00:28:27.455Z,10.50
2018-05-19T00:30:54.414Z,10.50
2018-05-19T00:33:20.667Z,10.50
2018-05-19T00:35:46.890Z,10.50
2018-05-19T00:38:13.083Z,10.50
2018-05-19T00:40:39.307Z,10.50
2018-05-19T00:43:05.504Z,10.50
2018-05-19T00:45:31.722Z,10.50
2018-05-19T00:47:57.948Z,10.40
2018-05-19T00:50:24.486Z,10.40
2018-05-19T00:52:50.685Z,10.40
2018-05-19T00:55:17.654Z,10.50
2018-05-19T00:57:43.843Z,10.40
2018-05-19T01:00:10.812Z,10.40
2018-05-19T01:02:37.006Z,10.40
2018-05-19T01:05:03.334Z,10.40
2018-05-19T01:07:29.533Z,10.30
2018-05-19T01:09:55.758Z,10.30
2018-05-19T01:12:22.046Z,10.30
2018-05-19T01:14:49.569Z,10.20
2018-05-19T01:17:17.088Z,10.20
2018-05-19T01:19:43.870Z,10.20
2018-05-19T01:22:11.059Z,10.20
2018-05-19T01:24:38.003Z,10.30
2018-05-19T01:27:11.878Z,10.30
2018-05-19T01:29:38.078Z,10.30
2018-05-19T01:32:04.299Z,10.30
2018-05-19T01:34:30.495Z,10.30
2018-05-19T01:36:57.458Z,10.40
2018-05-19T01:39:23.655Z,10.30
2018-05-19T01:41:49.876Z,10.40
2018-05-19T01:44:16.858Z,10.40
2018-05-19T01:46:43.859Z,10.40
2018-05-19T01:49:10.059Z,10.40
2018-05-19T01:51:36.270Z,10.30
2018-05-19T01:54:02.463Z,10.30
2018-05-19T01:56:28.683Z,10.30
2018-05-19T01:58:54.878Z,10.30
2018-05-19T02:01:21.156Z,10.30
2018-05-19T02:03:47.351Z,10.30
2018-05-19T02:06:13.566Z,10.20
2018-05-19T02:08:39.754Z,10.20
2018-05-19T02:11:06.734Z,10.10
2018-05-19T02:13:32.931Z,10.10
2018-05-19T02:15:59.973Z,10.20
2018-05-19T02:18:27.326Z,10.10
2018-05-19T02:20:54.491Z,10.10
2018-05-19T02:23:20.759Z,10.10
2018-05-19T02:25:46.956Z,10.10
2018-05-19T02:28:13.183Z,10.00
2018-05-19T02:30:40.364Z,9.90
2018-05-19T02:33:06.593Z,9.90
2018-05-19T02:35:32.783Z,9.90
2018-05-19T02:37:59.803Z,9.80
2018-05-19T02:40:26.000Z,9.80
2018-05-19T02:42:52.219Z,9.70
2018-05-19T02:45:18.415Z,9.70
2018-05-19T02:47:45.407Z,9.60
2018-05-19T02:50:11.607Z,9.60
2018-05-19T02:52:37.827Z,9.50
2018-05-19T02:55:04.768Z,9.50
2018-05-19T02:57:31.739Z,9.50
2018-05-19T02:59:57.935Z,9.50
2018-05-19T03:02:24.983Z,9.40
2018-05-19T03:04:51.128Z,9.40
2018-05-19T03:07:17.348Z,9.40
2018-05-19T03:09:44.283Z,9.40
2018-05-19T03:12:10.557Z,9.40
2018-05-19T03:14:36.761Z,9.40
2018-05-19T03:17:03.009Z,9.50
2018-05-19T03:19:29.251Z,9.50
2018-05-19T03:21:55.446Z,9.50
2018-05-19T03:24:21.686Z,9.50
2018-05-19T03:26:47.883Z,9.60
2018-05-19T03:29:14.103Z,9.60
2018-05-19T03:31:40.295Z,9.60
2018-05-19T03:34:06.531Z,9.70
2018-05-19T03:36:32.795Z,9.70
2018-05-19T03:38:59.015Z,9.80
2018-05-19T03:41:25.980Z,9.90
2018-05-19T03:43:52.943Z,9.90
2018-05-19T03:46:19.204Z,9.90
2018-05-19T03:48:45.455Z,10.00
2018-05-19T03:51:11.651Z,10.00
2018-05-19T03:53:37.930Z,10.10
2018-05-19T03:56:04.171Z,10.10
2018-05-19T03:58:43.594Z,10.20
2018-05-19T04:01:22.154Z,10.20
2018-05-19T04:03:48.371Z,10.30
2018-05-19T04:06:15.312Z,10.40
2018-05-19T04:08:43.110Z,10.50
2018-05-19T04:11:09.307Z,10.50
2018-05-19T04:13:36.241Z,10.60
2018-05-19T04:16:03.274Z,10.60
2018-05-19T04:18:29.470Z,10.60
2018-05-19T04:20:55.702Z,10.60
2018-05-19T04:23:21.890Z,10.70
2018-05-19T04:25:48.142Z,10.80
2018-05-19T04:28:14.339Z,10.90
2018-05-19T04:30:41.299Z,11.00
2018-05-19T04:33:07.487Z,10.90
2018-05-19T04:35:33.712Z,11.00
2018-05-19T04:37:59.921Z,11.20
2018-05-19T04:40:33.251Z,11.30
2018-05-19T04:42:59.450Z,11.30
2018-05-19T04:45:25.671Z,11.30
2018-05-19T04:47:51.896Z,11.40
2018-05-19T04:50:18.137Z,11.50
2018-05-19T04:52:44.338Z,11.60
2018-05-19T04:55:10.555Z,11.70
2018-05-19T04:57:36.754Z,11.90
2018-05-19T05:00:02.982Z,12.00
2018-05-19T05:02:29.183Z,12.20
2018-05-19T05:04:55.406Z,12.30
2018-05-19T05:07:21.598Z,12.30
2018-05-19T05:09:47.837Z,12.30
2018-05-19T05:12:14.036Z,12.20
2018-05-19T05:14:40.974Z,12.60
2018-05-19T05:17:07.947Z,12.70
2018-05-19T05:19:34.204Z,12.70
2018-05-19T05:22:00.423Z,12.80
2018-05-19T05:24:26.619Z,12.80
2018-05-19T05:26:53.578Z,12.70
2018-05-19T05:29:19.778Z,12.70
2018-05-19T05:31:45.995Z,12.90
2018-05-19T05:34:12.190Z,13.10
2018-05-19T05:36:38.414Z,13.20
2018-05-19T05:39:04.610Z,13.40
2018-05-19T05:41:31.574Z,13.50
2018-05-19T05:43:57.771Z,13.50
2018-05-19T05:46:24.747Z,13.90
2018-05-19T05:48:50.965Z,13.80
2018-05-19T05:51:17.931Z,14.10
2018-05-19T05:53:44.118Z,14.00
2018-05-19T05:56:11.078Z,14.20
2018-05-19T05:58:38.012Z,14.40
2018-05-19T06:01:04.979Z,14.50
2018-05-19T06:03:31.918Z,14.40
2018-05-19T06:05:58.943Z,14.30
2018-05-19T06:08:25.134Z,14.30
2018-05-19T06:10:51.351Z,14.50
2018-05-19T06:13:17.551Z,14.60
2018-05-19T06:15:44.515Z,14.80
2018-05-19T06:18:10.728Z,14.80
2018-05-19T06:20:37.705Z,15.00
2018-05-19T06:23:03.898Z,15.00
2018-05-19T06:25:30.927Z,15.30
2018-05-19T06:27:57.863Z,15.40
2018-05-19T06:30:24.088Z,15.40
2018-05-19T06:32:50.286Z,15.50
2018-05-19T06:35:16.526Z,15.40
2018-05-19T06:37:42.731Z,15.60
2018-05-19T06:40:08.983Z,15.70
2018-05-19T06:42:35.175Z,15.50
2018-05-19T06:45:02.141Z,15.10
2018-05-19T06:47:28.372Z,15.00
2018-05-19T06:49:54.595Z,15.10
2018-05-19T06:52:20.883Z,14.90
2018-05-19T06:54:48.582Z,14.50
2018-05-19T06:57:14.921Z,14.50
2018-05-19T06:59:41.124Z,14.40
2018-05-19T07:02:08.071Z,14.60
2018-05-19T07:04:35.035Z,14.70
2018-05-19T07:07:01.278Z,14.70
2018-05-19T07:09:27.751Z,14.80
2018-05-19T07:11:54.100Z,15.00
2018-05-19T07:14:20.250Z,15.20
2018-05-19T07:16:47.187Z,15.30
2018-05-19T07:19:14.159Z,15.10
2018-05-19T07:21:40.392Z,15.10
2018-05-19T07:24:06.606Z,15.30
2018-05-19T07:26:33.554Z,15.10
2018-05-19T07:29:00.495Z,14.90
2018-05-19T07:31:27.467Z,14.90
2018-05-19T07:33:54.038Z,14.80
2018-05-19T07:36:20.251Z,14.90
2018-05-19T07:38:46.442Z,14.80
2018-05-19T07:41:13.003Z,14.80
2018-05-19T07:43:39.193Z,14.80
2018-05-19T07:46:06.211Z,14.80
2018-05-19T07:48:32.407Z,14.80
2018-05-19T07:50:58.627Z,14.70
2018-05-19T07:53:24.818Z,14.90
2018-05-19T07:55:51.780Z,14.90
2018-05-19T07:58:18.131Z,14.90
2018-05-19T08:00:44.267Z,15.00
2018-05-19T08:03:10.532Z,15.20
2018-05-19T08:05:36.782Z,15.30
2018-05-19T08:08:03.724Z,15.50
2018-05-19T08:10:29.950Z,15.40
2018-05-19T08:12:56.162Z,15.60
2018-05-19T08:15:22.378Z,15.70
2018-05-19T08:17:48.565Z,15.90
2018-05-19T08:20:14.859Z,16.00
2018-05-19T08:22:41.014Z,16.10
2018-05-19T08:25:07.983Z,15.90
2018-05-19T08:27:34.183Z,15.90
2018-05-19T08:30:01.146Z,16.00
2018-05-19T08:32:27.343Z,16.00
2018-05-19T08:34:54.310Z,16.20
2018-05-19T08:37:21.254Z,16.30
2018-05-19T08:39:48.215Z,16.30
2018-05-19T08:42:14.403Z,16.30
2018-05-19T08:44:42.102Z,16.00
2018-05-19T08:47:08.301Z,16.00
2018-05-19T08:49:34.531Z,15.80
2018-05-19T08:52:01.474Z,15.70
2018-05-19T08:54:28.447Z,15.70
2018-05-19T08:56:55.407Z,15.30
2018-05-19T08:59:21.635Z,15.30
2018-05-19T09:01:47.825Z,15.30
2018-05-19T09:04:14.047Z,15.10
2018-05-19T09:06:41.167Z,15.60
2018-05-19T09:09:08.379Z,15.80
2018-05-19T09:11:35.417Z,15.90
2018-05-19T09:14:01.685Z,15.90
2018-05-19T09:16:27.907Z,16.20
2018-05-19T09:18:54.118Z,16.40
2018-05-19T09:21:21.087Z,17.10
2018-05-19T09:23:47.335Z,17.10
2018-05-19T09:26:13.542Z,17.10
2018-05-19T09:28:39.746Z,17.00
2018-05-19T09:31:06.723Z,17.10
2018-05-19T09:33:32.927Z,17.10
2018-05-19T09:35:59.895Z,17.40
2018-05-19T09:38:26.132Z,17.40
2018-05-19T09:40:52.359Z,17.70
2018-05-19T09:43:18.552Z,18.00
2018-05-19T09:45:45.515Z,18.50
2018-05-19T09:48:11.711Z,18.40
2018-05-19T09:50:37.936Z,18.80
2018-05-19T09:53:04.170Z,19.40
2018-05-19T09:55:30.391Z,20.10
2018-05-19T09:57:56.731Z,20.40
2018-05-19T10:00:22.951Z,21.00
2018-05-19T10:02:49.142Z,21.90
2018-05-19T10:05:15.473Z,22.80
2018-05-19T10:07:42.367Z,23.10
2018-05-19T10:10:09.327Z,24.00
2018-05-19T10:12:36.269Z,25.20
2018-05-19T10:15:03.226Z,25.80
2018-05-19T10:17:29.424Z,25.70
2018-05-19T10:19:55.648Z,26.30
2018-05-19T10:22:21.878Z,26.10
2018-05-19T10:24:48.202Z,25.60
2018-05-19T10:27:14.399Z,24.40
2018-05-19T10:29:40.596Z,23.60
2018-05-19T10:32:07.559Z,23.20
2018-05-19T10:34:33.754Z,23.20
2018-05-19T10:36:59.979Z,23.20
2018-05-19T10:39:26.180Z,23.30
2018-05-19T10:41:52.492Z,23.30
2018-05-19T10:44:18.627Z,23.10
2018-05-19T10:46:44.855Z,23.20
2018-05-19T10:49:11.060Z,23.20
2018-05-19T10:51:37.287Z,23.50
2018-05-19T10:54:03.478Z,23.70
2018-05-19T10:56:29.738Z,23.90
2018-05-19T10:58:55.967Z,23.70
2018-05-19T11:01:22.188Z,23.60
2018-05-19T11:03:49.163Z,24.20
2018-05-19T11:06:15.451Z,24.10
2018-05-19T11:08:41.793Z,24.50
2018-05-19T11:11:08.726Z,25.00
2018-05-19T11:13:34.981Z,25.00
2018-05-19T11:16:01.256Z,25.40
2018-05-19T11:18:27.453Z,26.20
2018-05-19T11:20:53.678Z,28.00
2018-05-19T11:23:19.903Z,29.90
2018-05-19T11:25:48.241Z,31.80
2018-05-19T11:28:14.354Z,32.10
2018-05-19T11:30:40.550Z,30.80
2018-05-19T11:33:06.775Z,31.00
2018-05-19T11:35:32.978Z,30.40
2018-05-19T11:37:59.312Z,30.00
2018-05-19T11:40:25.515Z,29.80
2018-05-19T11:42:51.738Z,30.40
2018-05-19T11:45:17.944Z,30.80
2018-05-19T11:47:44.601Z,29.80
2018-05-19T11:50:11.543Z,27.60
2018-05-19T11:52:37.735Z,27.50
2018-05-19T11:55:03.964Z,26.00
2018-05-19T11:57:30.166Z,25.00
2018-05-19T11:59:57.234Z,24.70
2018-05-19T12:02:23.445Z,24.70
2018-05-19T12:04:50.407Z,26.30
2018-05-19T12:07:16.635Z,26.30
2018-05-19T12:09:42.854Z,29.10
2018-05-19T12:12:09.904Z,29.50
2018-05-19T12:14:36.042Z,29.40
2018-05-19T12:17:02.231Z,28.10
2018-05-19T12:19:28.457Z,27.10
2018-05-19T12:21:54.658Z,26.70
2018-05-19T12:24:20.916Z,26.50
2018-05-19T12:26:47.260Z,25.90
2018-05-19T12:29:13.571Z,27.10
2018-05-19T12:31:39.763Z,29.40
2018-05-19T12:34:05.979Z,31.30
2018-05-19T12:36:32.181Z,33.10
2018-05-19T12:38:59.146Z,34.70
2018-05-19T12:41:25.342Z,34.70
2018-05-19T12:43:51.563Z,34.10
2018-05-19T12:46:17.790Z,32.40
2018-05-19T12:48:44.017Z,30.90
2018-05-19T12:51:10.231Z,29.50
2018-05-19T12:53:36.424Z,28.50
2018-05-19T12:56:02.643Z,28.80
2018-05-19T12:58:28.851Z,30.00
2018-05-19T13:00:55.819Z,31.60
2018-05-19T13:03:22.015Z,31.50
2018-05-19T13:05:48.262Z,31.10
2018-05-19T13:08:15.210Z,30.50
2018-05-19T13:10:42.171Z,30.00
2018-05-19T13:13:08.360Z,29.90
2018-05-19T13:15:34.638Z,30.10
2018-05-19T13:18:00.827Z,29.50
2018-05-19T13:20:27.047Z,29.40
2018-05-19T13:22:53.242Z,29.60
2018-05-19T13:25:19.467Z,30.80
2018-05-19T13:27:45.663Z,31.10
2018-05-19T13:30:12.627Z,32.20
2018-05-19T13:32:39.559Z,31.70
2018-05-19T13:35:05.784Z,31.70
2018-05-19T13:37:32.719Z,31.60
2018-05-19T13:39:59.663Z,32.30
2018-05-19T13:42:26.627Z,33.50
2018-05-19T13:44:52.850Z,33.50
2018-05-19T13:47:19.782Z,32.70
2018-05-19T13:49:46.738Z,32.40
2018-05-19T13:52:13.687Z,32.60
2018-05-19T13:54:40.660Z,32.30
2018-05-19T13:57:06.859Z,32.30
2018-05-19T13:59:33.791Z,32.00
2018-05-19T14:02:00.002Z,31.90
2018-05-19T14:04:26.200Z,31.90
2018-05-19T14:06:52.450Z,32.40
2018-05-19T14:09:18.655Z,31.70
2018-05-19T14:11:44.879Z,30.30
2018-05-19T14:14:11.074Z,30.20
2018-05-19T14:16:38.035Z,30.00
2018-05-19T14:19:04.230Z,29.90
2018-05-19T14:21:30.457Z,30.70
2018-05-19T14:23:56.655Z,31.30
2018-05-19T14:26:22.876Z,31.40
2018-05-19T14:28:49.082Z,32.10
2018-05-19T14:31:15.339Z,31.80
2018-05-19T14:33:41.539Z,31.40
2018-05-19T14:36:07.775Z,31.80
2018-05-19T14:38:33.971Z,31.70
2018-05-19T14:41:00.954Z,32.60
2018-05-19T14:43:27.155Z,32.50
2018-05-19T14:45:54.119Z,32.40
2018-05-19T14:48:20.344Z,32.40
2018-05-19T14:50:46.563Z,31.80
2018-05-19T14:53:13.501Z,29.70
2018-05-19T14:55:40.462Z,29.60
2018-05-19T14:58:06.922Z,29.60
2018-05-19T15:00:33.147Z,29.40
2018-05-19T15:02:59.351Z,29.20
2018-05-19T15:05:25.646Z,29.50
2018-05-19T15:07:51.876Z,29.40
2018-05-19T15:10:18.103Z,29.20
2018-05-19T15:12:44.295Z,28.80
2018-05-19T15:15:10.524Z,28.70
2018-05-19T15:17:36.723Z,28.50
2018-05-19T15:20:03.693Z,28.10
2018-05-19T15:22:29.888Z,28.10
2018-05-19T15:24:59.835Z,25.90
2018-05-19T15:27:26.200Z,25.90
2018-05-19T15:29:52.799Z,25.00
2018-05-19T15:32:19.019Z,25.10
2018-05-19T15:34:45.235Z,25.80
2018-05-19T15:37:12.194Z,26.70
2018-05-19T15:39:38.405Z,26.70
2018-05-19T15:42:05.370Z,26.90
2018-05-19T15:44:32.371Z,26.30
2018-05-19T15:46:58.589Z,26.30
2018-05-19T15:49:24.778Z,25.70
2018-05-19T15:51:51.000Z,25.10
2018-05-19T15:54:17.195Z,24.40
2018-05-19T15:56:44.211Z,23.00
2018-05-19T15:59:10.407Z,23.00
2018-05-19T16:01:37.489Z,22.90
2018-05-19T16:04:04.483Z,23.20
2018-05-19T16:06:31.535Z,23.20
2018-05-19T16:08:58.475Z,23.40
2018-05-19T16:11:25.435Z,23.80
2018-05-19T16:13:52.387Z,24.00
2018-05-19T16:16:18.606Z,24.00
2018-05-19T16:18:45.540Z,23.80
2018-05-19T16:21:12.503Z,23.50
2018-05-19T16:23:38.711Z,23.40
2018-05-19T16:26:05.224Z,22.90
2018-05-19T16:28:33.621Z,22.50
2018-05-19T16:31:01.221Z,21.40
2018-05-19T16:33:27.443Z,21.40
2018-05-19T16:35:54.392Z,20.30
2018-05-19T16:38:20.610Z,20.30
2018-05-19T16:40:48.292Z,19.90
2018-05-19T16:43:14.599Z,19.90
2018-05-19T16:45:41.539Z,19.30
2018-05-19T16:48:10.207Z,19.10
2018-05-19T16:50:37.140Z,19.10
2018-05-19T16:53:03.355Z,19.00
2018-05-19T16:55:29.552Z,19.00
2018-05-19T16:57:55.834Z,19.20
2018-05-19T17:00:22.094Z,19.40
2018-05-19T17:02:48.277Z,19.60
2018-05-19T17:05:14.478Z,19.50
2018-05-19T17:07:40.722Z,19.70
2018-05-19T17:10:06.957Z,19.80
2018-05-19T17:12:33.165Z,19.80
2018-05-19T17:14:59.354Z,19.40
2018-05-19T17:17:25.574Z,18.90
2018-05-19T17:19:51.762Z,18.50
2018-05-19T17:22:17.991Z,18.30
2018-05-19T17:24:44.183Z,18.00
2018-05-19T17:27:11.170Z,17.80
2018-05-19T17:29:37.446Z,17.70
2018-05-19T17:32:04.382Z,17.60
2018-05-19T17:34:30.747Z,17.60
2018-05-19T17:36:56.943Z,17.50
2018-05-19T17:39:23.317Z,17.40
2018-05-19T17:41:49.456Z,17.30
2018-05-19T17:44:15.692Z,17.30
2018-05-19T17:46:41.878Z,17.40
2018-05-19T17:49:08.857Z,17.40
2018-05-19T17:51:35.108Z,17.40
2018-05-19T17:54:01.359Z,17.20
2018-05-19T17:56:28.295Z,17.10
2018-05-19T17:58:55.999Z,17.00
2018-05-19T18:01:22.951Z,16.90
2018-05-19T18:03:49.186Z,16.90
2018-05-19T18:06:15.426Z,16.80
2018-05-19T18:08:41.651Z,16.70
2018-05-19T18:11:09.047Z,16.60
2018-05-19T18:13:36.019Z,16.50
2018-05-19T18:16:03.059Z,16.30
2018-05-19T18:18:30.092Z,16.10
2018-05-19T18:20:56.290Z,16.10
2018-05-19T18:23:22.565Z,16.10
2018-05-19T18:25:48.758Z,16.10
2018-05-19T18:28:15.049Z,16.10
2018-05-19T18:30:41.280Z,16.10
2018-05-19T18:33:08.244Z,16.10
2018-05-19T18:35:34.452Z,16.10
2018-05-19T18:38:01.435Z,16.00
2018-05-19T18:40:27.666Z,15.90
2018-05-19T18:42:53.931Z,15.90
2018-05-19T18:45:20.235Z,15.80
2018-05-19T18:47:46.470Z,15.70
2018-05-19T18:50:12.744Z,15.60
2018-05-19T18:52:52.794Z,15.40
2018-05-19T18:55:19.743Z,15.30
2018-05-19T18:57:46.778Z,15.20
2018-05-19T19:00:13.782Z,15.10
2018-05-19T19:02:40.007Z,15.00
2018-05-19T19:05:06.227Z,14.90
2018-05-19T19:07:32.480Z,14.70
2018-05-19T19:09:58.690Z,14.60
2018-05-19T19:12:24.944Z,14.40
2018-05-19T19:14:51.139Z,14.40
2018-05-19T19:17:17.331Z,14.30
2018-05-19T19:19:44.354Z,14.10
2018-05-19T19:22:10.571Z,14.00
2018-05-19T19:24:36.775Z,14.00
2018-05-19T19:27:03.230Z,13.90
2018-05-19T19:29:29.430Z,13.80
2018-05-19T19:31:55.615Z,13.70
2018-05-19T19:34:21.831Z,13.70
2018-05-19T19:36:48.035Z,13.60
2018-05-19T19:39:14.332Z,13.60
2018-05-19T19:41:40.791Z,13.70
2018-05-19T19:44:07.083Z,13.70
2018-05-19T19:46:34.072Z,13.90
2018-05-19T19:49:00.320Z,13.90
2018-05-19T19:51:26.515Z,14.00
2018-05-19T19:53:52.778Z,14.10
2018-05-19T19:56:19.735Z,14.20
2018-05-19T19:58:45.991Z,14.20
2018-05-19T20:01:12.239Z,14.30
2018-05-19T20:03:38.459Z,14.50
2018-05-19T20:06:05.388Z,14.70
2018-05-19T20:08:32.427Z,14.70
2018-05-19T20:10:58.682Z,14.60
2018-05-19T20:13:25.638Z,14.80
2018-05-19T20:15:51.860Z,14.70
2018-05-19T20:18:18.822Z,14.80
2018-05-19T20:20:45.023Z,14.70
2018-05-19T20:23:11.989Z,14.80
2018-05-19T20:25:38.268Z,14.80
2018-05-19T20:28:05.379Z,14.80
2018-05-19T20:30:31.575Z,14.80
2018-05-19T20:32:58.540Z,14.70
2018-05-19T20:35:24.804Z,14.60
2018-05-19T20:37:51.352Z,14.60
2018-05-19T20:40:17.642Z,14.70
2018-05-19T20:42:43.955Z,14.60
2018-05-19T20:45:10.927Z,14.50
2018-05-19T20:47:37.127Z,14.50
2018-05-19T20:50:04.211Z,14.30
2018-05-19T20:52:30.426Z,14.30
2018-05-19T20:54:56.650Z,14.30
2018-05-19T20:57:23.036Z,14.30
2018-05-19T20:59:50.039Z,14.00
2018-05-19T21:02:16.235Z,14.00
2018-05-19T21:04:43.220Z,13.70
2018-05-19T21:07:09.440Z,13.70
2018-05-19T21:09:35.671Z,13.60
2018-05-19T21:12:01.863Z,13.50
2018-05-19T21:14:28.096Z,13.30
2018-05-19T21:16:55.046Z,13.10
2018-05-19T21:19:21.363Z,13.10
2018-05-19T21:21:47.861Z,13.10
2018-05-19T21:24:14.868Z,12.90
2018-05-19T21:26:41.830Z,12.80
2018-05-19T21:29:08.047Z,12.80
2018-05-19T21:31:35.013Z,12.60
2018-05-19T21:34:01.207Z,12.60
2018-05-19T21:36:29.267Z,12.50
2018-05-19T21:39:03.634Z,12.40
2018-05-19T21:41:30.093Z,12.40
2018-05-19T21:43:56.286Z,12.40
2018-05-19T21:46:22.510Z,12.30
2018-05-19T21:48:48.715Z,12.30
2018-05-19T21:51:14.942Z,12.20
2018-05-19T21:53:41.261Z,12.10
2018-05-19T21:56:07.555Z,12.00
2018-05-19T21:58:33.762Z,11.90
2018-05-19T22:00:59.983Z,11.80
2018-05-19T22:03:27.106Z,11.60
2018-05-19T22:05:54.479Z,11.60
2018-05-19T22:08:20.754Z,11.60
2018-05-19T22:10:47.086Z,11.60
2018-05-19T22:13:13.622Z,11.50
2018-05-19T22:15:39.847Z,11.50
2018-05-19T22:18:06.049Z,11.50
2018-05-19T22:20:32.431Z,11.50
2018-05-19T22:22:58.630Z,11.40
2018-05-19T22:25:24.838Z,11.40
2018-05-19T22:27:51.800Z,11.40
2018-05-19T22:30:18.015Z,11.30
2018-05-19T22:32:44.202Z,11.30
2018-05-19T22:35:10.423Z,11.30
2018-05-19T22:37:36.648Z,11.30
2018-05-19T22:40:02.842Z,11.30
2018-05-19T22:42:29.059Z,11.20
2018-05-19T22:44:55.503Z,11.20
2018-05-19T22:47:21.699Z,11.20
2018-05-19T22:49:48.717Z,11.20
2018-05-19T22:52:14.919Z,11.10
2018-05-19T22:54:41.135Z,11.10
2018-05-19T22:57:07.333Z,11.10
2018-05-19T22:59:34.287Z,11.10
2018-05-19T23:02:01.255Z,11.10
2018-05-19T23:04:27.483Z,11.10
2018-05-19T23:06:53.711Z,11.20
2018-05-19T23:09:19.936Z,11.20
2018-05-19T23:11:46.136Z,11.20
2018-05-19T23:14:12.359Z,11.10
2018-05-19T23:16:40.100Z,11.00
2018-05-19T23:19:06.343Z,11.00
2018-05-19T23:21:32.543Z,11.00
2018-05-19T23:23:58.746Z,10.90
2018-05-19T23:26:24.970Z,10.90
2018-05-19T23:28:51.166Z,10.90
2018-05-19T23:31:17.391Z,10.90
2018-05-19T23:33:45.066Z,10.80
2018-05-19T23:36:11.291Z,10.80
2018-05-19T23:38:37.497Z,10.90
2018-05-19T23:41:03.718Z,10.90
2018-05-19T23:43:29.915Z,10.90
2018-05-19T23:45:56.134Z,10.90
2018-05-19T23:48:22.335Z,10.90
2018-05-19T23:50:49.319Z,11.00
2018-05-19T23:53:15.515Z,10.90
2018-05-19T23:55:42.463Z,11.00
2018-05-19T23:58:09.435Z,11.00
